sensor_id;sensor_type;location;lat;lon;timestamp;pressure;altitude;pressure_sealevel;temperature;humidity
71638;BME280;59485;43.542;-5.676;2022-11-13T00:01:40;101576.22;;;14.90;83.26
71638;BME280;59485;43.542;-5.676;2022-11-13T00:04:06;101572.22;;;14.93;82.26
71638;BME280;59485;43.542;-5.676;2022-11-13T00:06:31;101580.06;;;14.96;82.00
71638;BME280;59485;43.542;-5.676;2022-11-13T00:08:57;101577.38;;;15.02;81.21
71638;BME280;59485;43.542;-5.676;2022-11-13T00:11:22;101579.94;;;15.04;81.41
71638;BME280;59485;43.542;-5.676;2022-11-13T00:13:48;101574.16;;;14.99;81.35
71638;BME280;59485;43.542;-5.676;2022-11-13T00:16:16;101582.84;;;14.96;82.11
71638;BME280;59485;43.542;-5.676;2022-11-13T00:18:42;101579.84;;;14.91;82.41
71638;BME280;59485;43.542;-5.676;2022-11-13T00:21:14;101577.94;;;14.91;81.84
71638;BME280;59485;43.542;-5.676;2022-11-13T00:23:40;101585.31;;;14.84;82.26
71638;BME280;59485;43.542;-5.676;2022-11-13T00:26:17;101570.38;;;14.79;82.15
71638;BME280;59485;43.542;-5.676;2022-11-13T00:28:44;101575.03;;;14.78;82.40
71638;BME280;59485;43.542;-5.676;2022-11-13T00:31:11;101574.59;;;14.75;82.53
71638;BME280;59485;43.542;-5.676;2022-11-13T00:33:37;101572.69;;;14.75;82.39
71638;BME280;59485;43.542;-5.676;2022-11-13T00:36:05;101580.50;;;14.72;82.44
71638;BME280;59485;43.542;-5.676;2022-11-13T00:38:31;101567.75;;;14.71;82.22
71638;BME280;59485;43.542;-5.676;2022-11-13T00:40:58;101572.59;;;14.69;82.36
71638;BME280;59485;43.542;-5.676;2022-11-13T00:43:23;101563.47;;;14.68;82.08
71638;BME280;59485;43.542;-5.676;2022-11-13T00:45:49;101571.75;;;14.68;81.84
71638;BME280;59485;43.542;-5.676;2022-11-13T00:48:15;101567.09;;;14.69;81.06
71638;BME280;59485;43.542;-5.676;2022-11-13T00:50:41;101562.41;;;14.69;81.26
71638;BME280;59485;43.542;-5.676;2022-11-13T00:53:06;101553.72;;;14.66;81.08
71638;BME280;59485;43.542;-5.676;2022-11-13T00:55:32;101563.69;;;14.67;80.99
71638;BME280;59485;43.542;-5.676;2022-11-13T00:57:57;101564.75;;;14.66;81.00
71638;BME280;59485;43.542;-5.676;2022-11-13T01:00:23;101566.97;;;14.55;81.34
71638;BME280;59485;43.542;-5.676;2022-11-13T01:02:48;101564.53;;;14.46;81.81
71638;BME280;59485;43.542;-5.676;2022-11-13T01:05:14;101572.03;;;14.52;82.01
71638;BME280;59485;43.542;-5.676;2022-11-13T01:07:39;101570.31;;;14.51;82.11
71638;BME280;59485;43.542;-5.676;2022-11-13T01:10:05;101567.09;;;14.47;82.21
71638;BME280;59485;43.542;-5.676;2022-11-13T01:12:31;101562.34;;;14.41;82.38
71638;BME280;59485;43.542;-5.676;2022-11-13T01:14:57;101559.59;;;14.41;82.50
71638;BME280;59485;43.542;-5.676;2022-11-13T01:17:22;101573.78;;;14.38;82.62
71638;BME280;59485;43.542;-5.676;2022-11-13T01:19:48;101566.91;;;14.34;82.74
71638;BME280;59485;43.542;-5.676;2022-11-13T01:22:13;101561.72;;;14.24;82.49
71638;BME280;59485;43.542;-5.676;2022-11-13T01:24:39;101555.34;;;14.24;82.92
71638;BME280;59485;43.542;-5.676;2022-11-13T01:27:05;101568.94;;;14.25;82.91
71638;BME280;59485;43.542;-5.676;2022-11-13T01:29:30;101562.56;;;14.25;82.76
71638;BME280;59485;43.542;-5.676;2022-11-13T01:31:56;101572.75;;;14.24;82.54
71638;BME280;59485;43.542;-5.676;2022-11-13T01:34:21;101566.00;;;14.27;81.40
71638;BME280;59485;43.542;-5.676;2022-11-13T01:36:47;101563.97;;;14.36;80.40
71638;BME280;59485;43.542;-5.676;2022-11-13T01:39:13;101563.13;;;14.35;80.27
71638;BME280;59485;43.542;-5.676;2022-11-13T01:41:38;101568.63;;;14.35;80.44
71638;BME280;59485;43.542;-5.676;2022-11-13T01:44:10;101562.66;;;14.32;80.35
71638;BME280;59485;43.542;-5.676;2022-11-13T01:46:39;101563.31;;;14.34;80.44
71638;BME280;59485;43.542;-5.676;2022-11-13T01:51:39;101564.09;;;14.27;80.75
71638;BME280;59485;43.542;-5.676;2022-11-13T01:54:19;101555.75;;;14.21;80.96
71638;BME280;59485;43.542;-5.676;2022-11-13T01:56:45;101545.59;;;14.21;81.06
71638;BME280;59485;43.542;-5.676;2022-11-13T01:59:19;101549.19;;;14.22;81.16
71638;BME280;59485;43.542;-5.676;2022-11-13T02:01:46;101552.34;;;14.19;81.22
71638;BME280;59485;43.542;-5.676;2022-11-13T02:04:12;101553.38;;;14.18;81.44
71638;BME280;59485;43.542;-5.676;2022-11-13T02:06:50;101550.81;;;14.16;81.43
71638;BME280;59485;43.542;-5.676;2022-11-13T02:09:21;101557.78;;;14.12;81.52
71638;BME280;59485;43.542;-5.676;2022-11-13T02:11:49;101561.78;;;14.10;81.43
71638;BME280;59485;43.542;-5.676;2022-11-13T02:14:16;101554.75;;;14.07;81.51
71638;BME280;59485;43.542;-5.676;2022-11-13T02:16:45;101563.88;;;14.08;82.02
71638;BME280;59485;43.542;-5.676;2022-11-13T02:19:29;101555.78;;;14.06;81.95
71638;BME280;59485;43.542;-5.676;2022-11-13T02:22:21;101552.59;;;14.03;82.28
71638;BME280;59485;43.542;-5.676;2022-11-13T02:24:51;101553.63;;;14.02;82.13
71638;BME280;59485;43.542;-5.676;2022-11-13T02:27:30;101548.50;;;13.99;81.93
71638;BME280;59485;43.542;-5.676;2022-11-13T02:29:57;101554.84;;;13.99;82.18
71638;BME280;59485;43.542;-5.676;2022-11-13T02:32:22;101560.00;;;14.02;81.95
71638;BME280;59485;43.542;-5.676;2022-11-13T02:34:48;101553.81;;;14.00;82.09
71638;BME280;59485;43.542;-5.676;2022-11-13T02:37:14;101555.91;;;13.98;82.39
71638;BME280;59485;43.542;-5.676;2022-11-13T02:39:39;101557.63;;;13.99;82.41
71638;BME280;59485;43.542;-5.676;2022-11-13T02:42:05;101554.00;;;13.99;82.31
71638;BME280;59485;43.542;-5.676;2022-11-13T02:44:30;101553.34;;;13.97;82.64
71638;BME280;59485;43.542;-5.676;2022-11-13T02:46:56;101552.09;;;13.99;82.59
71638;BME280;59485;43.542;-5.676;2022-11-13T02:49:21;101547.81;;;13.97;82.46
71638;BME280;59485;43.542;-5.676;2022-11-13T02:51:47;101543.66;;;14.01;81.44
71638;BME280;59485;43.542;-5.676;2022-11-13T02:54:12;101553.22;;;14.05;81.81
71638;BME280;59485;43.542;-5.676;2022-11-13T02:56:38;101548.97;;;14.02;81.88
71638;BME280;59485;43.542;-5.676;2022-11-13T02:59:03;101546.66;;;14.06;81.68
71638;BME280;59485;43.542;-5.676;2022-11-13T03:01:29;101550.94;;;14.08;81.51
71638;BME280;59485;43.542;-5.676;2022-11-13T03:03:54;101550.94;;;14.08;81.56
71638;BME280;59485;43.542;-5.676;2022-11-13T03:06:20;101542.47;;;14.10;81.32
71638;BME280;59485;43.542;-5.676;2022-11-13T03:08:45;101541.25;;;14.12;81.02
71638;BME280;59485;43.542;-5.676;2022-11-13T03:11:11;101538.25;;;14.14;81.11
71638;BME280;59485;43.542;-5.676;2022-11-13T03:13:37;101535.50;;;14.14;80.77
71638;BME280;59485;43.542;-5.676;2022-11-13T03:16:14;101532.38;;;14.17;80.67
71638;BME280;59485;43.542;-5.676;2022-11-13T03:18:41;101533.22;;;14.17;80.45
71638;BME280;59485;43.542;-5.676;2022-11-13T03:21:12;101525.81;;;14.18;80.42
71638;BME280;59485;43.542;-5.676;2022-11-13T03:23:39;101527.53;;;14.19;79.86
71638;BME280;59485;43.542;-5.676;2022-11-13T03:26:10;101535.91;;;14.32;77.84
71638;BME280;59485;43.542;-5.676;2022-11-13T03:28:37;101525.88;;;14.39;77.47
71638;BME280;59485;43.542;-5.676;2022-11-13T03:31:03;101528.88;;;14.44;76.92
71638;BME280;59485;43.542;-5.676;2022-11-13T03:33:29;101531.91;;;14.49;76.76
71638;BME280;59485;43.542;-5.676;2022-11-13T03:35:55;101522.63;;;14.57;75.83
71638;BME280;59485;43.542;-5.676;2022-11-13T03:38:20;101520.13;;;14.62;75.86
71638;BME280;59485;43.542;-5.676;2022-11-13T03:40:46;101515.25;;;14.64;75.32
71638;BME280;59485;43.542;-5.676;2022-11-13T03:43:12;101527.16;;;14.64;75.49
71638;BME280;59485;43.542;-5.676;2022-11-13T03:45:37;101523.53;;;14.64;75.64
71638;BME280;59485;43.542;-5.676;2022-11-13T03:48:03;101528.22;;;14.63;75.94
71638;BME280;59485;43.542;-5.676;2022-11-13T03:50:29;101528.59;;;14.60;76.06
71638;BME280;59485;43.542;-5.676;2022-11-13T03:52:55;101530.50;;;14.60;75.85
71638;BME280;59485;43.542;-5.676;2022-11-13T03:55:21;101526.88;;;14.59;75.74
71638;BME280;59485;43.542;-5.676;2022-11-13T03:57:47;101527.75;;;14.60;75.97
71638;BME280;59485;43.542;-5.676;2022-11-13T04:00:13;101531.78;;;14.57;76.10
71638;BME280;59485;43.542;-5.676;2022-11-13T04:02:39;101538.16;;;14.58;75.83
71638;BME280;59485;43.542;-5.676;2022-11-13T04:05:05;101536.22;;;14.58;75.55
71638;BME280;59485;43.542;-5.676;2022-11-13T04:07:31;101534.59;;;14.64;75.18
71638;BME280;59485;43.542;-5.676;2022-11-13T04:09:56;101528.69;;;14.67;75.17
71638;BME280;59485;43.542;-5.676;2022-11-13T04:12:22;101530.34;;;14.68;75.46
71638;BME280;59485;43.542;-5.676;2022-11-13T04:14:47;101532.69;;;14.64;75.54
71638;BME280;59485;43.542;-5.676;2022-11-13T04:17:13;101524.13;;;14.59;75.90
71638;BME280;59485;43.542;-5.676;2022-11-13T04:19:38;101527.75;;;14.60;76.31
71638;BME280;59485;43.542;-5.676;2022-11-13T04:22:04;101523.50;;;14.57;76.66
71638;BME280;59485;43.542;-5.676;2022-11-13T04:24:29;101524.34;;;14.58;76.25
71638;BME280;59485;43.542;-5.676;2022-11-13T04:26:55;101529.00;;;14.57;76.13
71638;BME280;59485;43.542;-5.676;2022-11-13T04:29:20;101518.81;;;14.58;75.89
71638;BME280;59485;43.542;-5.676;2022-11-13T04:31:46;101514.78;;;14.60;75.82
71638;BME280;59485;43.542;-5.676;2022-11-13T04:34:11;101515.22;;;14.57;76.15
71638;BME280;59485;43.542;-5.676;2022-11-13T04:36:37;101514.56;;;14.55;76.46
71638;BME280;59485;43.542;-5.676;2022-11-13T04:39:02;101502.13;;;14.45;76.76
71638;BME280;59485;43.542;-5.676;2022-11-13T04:41:28;101502.06;;;14.38;77.26
71638;BME280;59485;43.542;-5.676;2022-11-13T04:44:12;101501.47;;;14.43;77.16
71638;BME280;59485;43.542;-5.676;2022-11-13T04:46:37;101514.03;;;14.45;77.42
71638;BME280;59485;43.542;-5.676;2022-11-13T04:49:03;101506.13;;;14.42;77.02
71638;BME280;59485;43.542;-5.676;2022-11-13T04:51:28;101501.66;;;14.41;77.05
71638;BME280;59485;43.542;-5.676;2022-11-13T04:53:55;101508.91;;;14.42;77.23
71638;BME280;59485;43.542;-5.676;2022-11-13T04:56:20;101504.66;;;14.40;77.24
71638;BME280;59485;43.542;-5.676;2022-11-13T04:58:46;101506.56;;;14.39;77.30
71638;BME280;59485;43.542;-5.676;2022-11-13T05:01:11;101506.34;;;14.41;77.27
71638;BME280;59485;43.542;-5.676;2022-11-13T05:03:37;101505.69;;;14.39;77.50
71638;BME280;59485;43.542;-5.676;2022-11-13T05:06:07;101508.63;;;14.37;77.79
71638;BME280;59485;43.542;-5.676;2022-11-13T05:08:34;101502.81;;;14.32;77.55
71638;BME280;59485;43.542;-5.676;2022-11-13T05:11:00;101501.78;;;14.33;77.76
71638;BME280;59485;43.542;-5.676;2022-11-13T05:13:29;101498.56;;;14.30;77.59
71638;BME280;59485;43.542;-5.676;2022-11-13T05:16:06;101493.44;;;14.26;77.62
71638;BME280;59485;43.542;-5.676;2022-11-13T05:18:33;101495.16;;;14.27;77.66
71638;BME280;59485;43.542;-5.676;2022-11-13T05:20:59;101481.13;;;14.22;77.97
71638;BME280;59485;43.542;-5.676;2022-11-13T05:23:25;101494.50;;;14.25;77.99
71638;BME280;59485;43.542;-5.676;2022-11-13T05:25:51;101497.06;;;14.27;77.37
71638;BME280;59485;43.542;-5.676;2022-11-13T05:28:17;101486.22;;;14.25;77.62
71638;BME280;59485;43.542;-5.676;2022-11-13T05:30:43;101487.06;;;14.26;77.92
71638;BME280;59485;43.542;-5.676;2022-11-13T05:33:09;101481.56;;;14.26;77.22
71638;BME280;59485;43.542;-5.676;2022-11-13T05:35:34;101477.09;;;14.25;77.53
71638;BME280;59485;43.542;-5.676;2022-11-13T05:38:00;101476.22;;;14.24;77.00
71638;BME280;59485;43.542;-5.676;2022-11-13T05:40:28;101473.66;;;14.23;76.90
71638;BME280;59485;43.542;-5.676;2022-11-13T05:42:54;101482.59;;;14.25;76.97
71638;BME280;59485;43.542;-5.676;2022-11-13T05:45:21;101479.47;;;14.28;76.67
71638;BME280;59485;43.542;-5.676;2022-11-13T05:47:46;101469.47;;;14.27;76.64
71638;BME280;59485;43.542;-5.676;2022-11-13T05:50:12;101478.22;;;14.31;76.49
71638;BME280;59485;43.542;-5.676;2022-11-13T05:52:37;101475.03;;;14.34;76.11
71638;BME280;59485;43.542;-5.676;2022-11-13T05:55:04;101469.16;;;14.37;76.16
71638;BME280;59485;43.542;-5.676;2022-11-13T05:57:29;101476.22;;;14.39;76.44
71638;BME280;59485;43.542;-5.676;2022-11-13T05:59:55;101483.44;;;14.40;76.30
71638;BME280;59485;43.542;-5.676;2022-11-13T06:02:20;101477.94;;;14.40;76.33
71638;BME280;59485;43.542;-5.676;2022-11-13T06:04:47;101473.63;;;14.38;76.27
71638;BME280;59485;43.542;-5.676;2022-11-13T06:07:13;101470.19;;;14.36;76.23
71638;BME280;59485;43.542;-5.676;2022-11-13T06:09:38;101472.09;;;14.35;76.33
71638;BME280;59485;43.542;-5.676;2022-11-13T06:12:04;101475.25;;;14.32;76.36
71638;BME280;59485;43.542;-5.676;2022-11-13T06:14:29;101474.84;;;14.35;76.64
71638;BME280;59485;43.542;-5.676;2022-11-13T06:16:55;101466.78;;;14.34;76.66
71638;BME280;59485;43.542;-5.676;2022-11-13T06:19:20;101472.28;;;14.34;76.53
71638;BME280;59485;43.542;-5.676;2022-11-13T06:21:46;101475.91;;;14.34;76.46
71638;BME280;59485;43.542;-5.676;2022-11-13T06:24:12;101476.31;;;14.31;76.68
71638;BME280;59485;43.542;-5.676;2022-11-13T06:26:37;101479.47;;;14.28;76.65
71638;BME280;59485;43.542;-5.676;2022-11-13T06:29:05;101470.91;;;14.23;76.72
71638;BME280;59485;43.542;-5.676;2022-11-13T06:31:33;101476.44;;;14.23;77.03
71638;BME280;59485;43.542;-5.676;2022-11-13T06:33:59;101466.00;;;14.18;76.77
71638;BME280;59485;43.542;-5.676;2022-11-13T06:36:30;101465.53;;;14.15;76.62
71638;BME280;59485;43.542;-5.676;2022-11-13T06:38:56;101471.25;;;14.13;76.72
71638;BME280;59485;43.542;-5.676;2022-11-13T06:41:28;101475.06;;;14.12;76.94
71638;BME280;59485;43.542;-5.676;2022-11-13T06:43:54;101472.50;;;14.11;77.03
71638;BME280;59485;43.542;-5.676;2022-11-13T06:46:23;101472.03;;;14.07;77.37
71638;BME280;59485;43.542;-5.676;2022-11-13T06:48:49;101466.25;;;14.02;77.60
71638;BME280;59485;43.542;-5.676;2022-11-13T06:51:24;101464.75;;;14.00;77.82
71638;BME280;59485;43.542;-5.676;2022-11-13T06:53:50;101472.09;;;13.93;77.92
71638;BME280;59485;43.542;-5.676;2022-11-13T06:56:16;101464.88;;;13.92;78.17
71638;BME280;59485;43.542;-5.676;2022-11-13T06:58:42;101463.34;;;13.89;78.58
71638;BME280;59485;43.542;-5.676;2022-11-13T07:01:15;101463.53;;;13.87;78.30
71638;BME280;59485;43.542;-5.676;2022-11-13T07:03:41;101463.94;;;13.84;78.10
71638;BME280;59485;43.542;-5.676;2022-11-13T07:06:10;101462.25;;;13.83;77.96
71638;BME280;59485;43.542;-5.676;2022-11-13T07:08:40;101459.19;;;13.78;77.93
71638;BME280;59485;43.542;-5.676;2022-11-13T07:11:06;101458.56;;;13.76;77.97
71638;BME280;59485;43.542;-5.676;2022-11-13T07:13:32;101467.69;;;13.77;78.15
71638;BME280;59485;43.542;-5.676;2022-11-13T07:16:02;101465.50;;;13.72;78.35
71638;BME280;59485;43.542;-5.676;2022-11-13T07:18:31;101463.97;;;13.70;78.70
71638;BME280;59485;43.542;-5.676;2022-11-13T07:20:57;101461.81;;;13.65;79.28
71638;BME280;59485;43.542;-5.676;2022-11-13T07:23:23;101475.00;;;13.70;79.27
71638;BME280;59485;43.542;-5.676;2022-11-13T07:25:52;101472.84;;;13.65;79.26
71638;BME280;59485;43.542;-5.676;2022-11-13T07:28:19;101468.56;;;13.63;79.49
71638;BME280;59485;43.542;-5.676;2022-11-13T07:30:44;101464.94;;;13.62;79.26
71638;BME280;59485;43.542;-5.676;2022-11-13T07:33:10;101471.50;;;13.61;79.27
71638;BME280;59485;43.542;-5.676;2022-11-13T07:35:35;101468.13;;;13.59;79.09
71638;BME280;59485;43.542;-5.676;2022-11-13T07:38:01;101469.16;;;13.58;79.06
71638;BME280;59485;43.542;-5.676;2022-11-13T07:40:26;101463.84;;;13.57;79.23
71638;BME280;59485;43.542;-5.676;2022-11-13T07:42:59;101481.22;;;13.57;79.31
71638;BME280;59485;43.542;-5.676;2022-11-13T07:45:26;101484.16;;;13.56;79.40
71638;BME280;59485;43.542;-5.676;2022-11-13T07:48:02;101489.84;;;13.54;79.29
71638;BME280;59485;43.542;-5.676;2022-11-13T07:50:32;101482.63;;;13.53;78.91
71638;BME280;59485;43.542;-5.676;2022-11-13T07:53:00;101486.06;;;13.55;79.48
71638;BME280;59485;43.542;-5.676;2022-11-13T07:55:26;101491.84;;;13.60;79.29
71638;BME280;59485;43.542;-5.676;2022-11-13T07:57:56;101490.41;;;13.64;79.22
71638;BME280;59485;43.542;-5.676;2022-11-13T08:00:26;101492.97;;;13.66;78.87
71638;BME280;59485;43.542;-5.676;2022-11-13T08:02:52;101492.38;;;13.70;78.56
71638;BME280;59485;43.542;-5.676;2022-11-13T08:05:18;101490.97;;;13.74;78.76
71638;BME280;59485;43.542;-5.676;2022-11-13T08:07:51;101490.38;;;13.79;78.41
71638;BME280;59485;43.542;-5.676;2022-11-13T08:10:17;101489.81;;;13.83;77.60
71638;BME280;59485;43.542;-5.676;2022-11-13T08:12:46;101499.84;;;13.91;77.64
71638;BME280;59485;43.542;-5.676;2022-11-13T08:15:12;101491.00;;;13.96;77.39
71638;BME280;59485;43.542;-5.676;2022-11-13T08:17:38;101496.59;;;14.02;77.84
71638;BME280;59485;43.542;-5.676;2022-11-13T08:20:05;101497.03;;;14.06;77.37
71638;BME280;59485;43.542;-5.676;2022-11-13T08:22:31;101491.53;;;14.06;77.29
71638;BME280;59485;43.542;-5.676;2022-11-13T08:24:57;101493.72;;;14.10;77.22
71638;BME280;59485;43.542;-5.676;2022-11-13T08:27:23;101492.53;;;14.19;76.61
71638;BME280;59485;43.542;-5.676;2022-11-13T08:29:49;101491.28;;;14.22;76.62
71638;BME280;59485;43.542;-5.676;2022-11-13T08:32:17;101490.50;;;14.28;76.72
71638;BME280;59485;43.542;-5.676;2022-11-13T08:34:43;101487.53;;;14.30;76.65
71638;BME280;59485;43.542;-5.676;2022-11-13T08:37:09;101495.88;;;14.36;76.38
71638;BME280;59485;43.542;-5.676;2022-11-13T08:39:34;101482.28;;;14.35;76.23
71638;BME280;59485;43.542;-5.676;2022-11-13T08:42:01;101492.53;;;14.41;76.13
71638;BME280;59485;43.542;-5.676;2022-11-13T08:44:26;101500.81;;;14.41;75.88
71638;BME280;59485;43.542;-5.676;2022-11-13T08:46:52;101484.50;;;14.39;75.46
71638;BME280;59485;43.542;-5.676;2022-11-13T08:49:17;101494.06;;;14.43;75.60
71638;BME280;59485;43.542;-5.676;2022-11-13T08:51:43;101492.16;;;14.44;75.85
71638;BME280;59485;43.542;-5.676;2022-11-13T08:54:08;101484.94;;;14.43;76.03
71638;BME280;59485;43.542;-5.676;2022-11-13T08:56:34;101488.34;;;14.45;76.27
71638;BME280;59485;43.542;-5.676;2022-11-13T08:58:59;101489.59;;;14.42;76.56
71638;BME280;59485;43.542;-5.676;2022-11-13T09:01:25;101478.75;;;14.41;76.48
71638;BME280;59485;43.542;-5.676;2022-11-13T09:03:50;101486.19;;;14.40;76.67
71638;BME280;59485;43.542;-5.676;2022-11-13T09:06:16;101487.25;;;14.39;76.44
71638;BME280;59485;43.542;-5.676;2022-11-13T09:08:42;101485.13;;;14.41;76.18
71638;BME280;59485;43.542;-5.676;2022-11-13T09:11:07;101482.16;;;14.43;75.73
71638;BME280;59485;43.542;-5.676;2022-11-13T09:13:33;101485.78;;;14.43;75.36
71638;BME280;59485;43.542;-5.676;2022-11-13T09:16:00;101480.06;;;14.45;75.13
71638;BME280;59485;43.542;-5.676;2022-11-13T09:18:27;101487.75;;;14.49;75.10
71638;BME280;59485;43.542;-5.676;2022-11-13T09:20:53;101479.25;;;14.51;75.26
71638;BME280;59485;43.542;-5.676;2022-11-13T09:23:19;101481.84;;;14.52;75.24
71638;BME280;59485;43.542;-5.676;2022-11-13T09:25:45;101475.72;;;14.57;75.42
71638;BME280;59485;43.542;-5.676;2022-11-13T09:28:10;101464.09;;;14.61;75.13
71638;BME280;59485;43.542;-5.676;2022-11-13T09:30:37;101477.72;;;14.70;75.34
71638;BME280;59485;43.542;-5.676;2022-11-13T09:33:04;101479.47;;;14.77;75.31
71638;BME280;59485;43.542;-5.676;2022-11-13T09:35:31;101473.81;;;14.85;74.57
71638;BME280;59485;43.542;-5.676;2022-11-13T09:38:10;101474.53;;;14.94;74.59
71638;BME280;59485;43.542;-5.676;2022-11-13T09:40:47;101473.53;;;15.01;73.84
71638;BME280;59485;43.542;-5.676;2022-11-13T09:43:22;101465.94;;;15.10;73.76
71638;BME280;59485;43.542;-5.676;2022-11-13T09:45:51;101464.06;;;15.17;73.91
71638;BME280;59485;43.542;-5.676;2022-11-13T09:48:40;101466.63;;;15.25;73.36
71638;BME280;59485;43.542;-5.676;2022-11-13T09:51:18;101449.69;;;15.35;72.51
71638;BME280;59485;43.542;-5.676;2022-11-13T09:53:44;101454.84;;;15.45;72.26
71638;BME280;59485;43.542;-5.676;2022-11-13T09:59:01;101446.88;;;15.63;72.10
71638;BME280;59485;43.542;-5.676;2022-11-13T10:01:37;101446.03;;;15.75;70.25
71638;BME280;59485;43.542;-5.676;2022-11-13T10:04:07;101437.56;;;15.84;70.63
71638;BME280;59485;43.542;-5.676;2022-11-13T10:06:48;101433.78;;;15.91;70.87
71638;BME280;59485;43.542;-5.676;2022-11-13T10:12:02;101444.66;;;16.12;69.84
71638;BME280;59485;43.542;-5.676;2022-11-13T10:14:41;101439.97;;;16.20;70.09
71638;BME280;59485;43.542;-5.676;2022-11-13T10:17:56;101437.88;;;16.28;69.29
71638;BME280;59485;43.542;-5.676;2022-11-13T10:20:00;101441.91;;;16.39;69.73
71638;BME280;59485;43.542;-5.676;2022-11-13T10:22:37;101442.13;;;16.44;69.80
71638;BME280;59485;43.542;-5.676;2022-11-13T10:27:35;101441.31;;;16.63;69.89
71638;BME280;59485;43.542;-5.676;2022-11-13T10:30:01;101442.81;;;16.72;70.14
71638;BME280;59485;43.542;-5.676;2022-11-13T10:32:30;101439.38;;;16.77;69.55
71638;BME280;59485;43.542;-5.676;2022-11-13T10:40:30;101428.47;;;17.08;70.23
71638;BME280;59485;43.542;-5.676;2022-11-13T10:43:24;101426.31;;;17.17;70.42
71638;BME280;59485;43.542;-5.676;2022-11-13T10:45:56;101419.25;;;17.21;70.20
71638;BME280;59485;43.542;-5.676;2022-11-13T10:50:57;101419.22;;;17.34;69.64
71638;BME280;59485;43.542;-5.676;2022-11-13T10:53:25;101423.44;;;17.43;69.71
71638;BME280;59485;43.542;-5.676;2022-11-13T10:55:58;101417.63;;;17.51;69.22
71638;BME280;59485;43.542;-5.676;2022-11-13T10:58:24;101428.03;;;17.69;68.35
71638;BME280;59485;43.542;-5.676;2022-11-13T11:00:49;101428.41;;;17.73;68.87
71638;BME280;59485;43.542;-5.676;2022-11-13T11:03:24;101430.81;;;17.69;69.56
71638;BME280;59485;43.542;-5.676;2022-11-13T11:05:51;101430.19;;;17.60;70.41
71638;BME280;59485;43.542;-5.676;2022-11-13T11:08:25;101438.75;;;17.52;74.59
71638;BME280;59485;43.542;-5.676;2022-11-13T11:11:17;101425.97;;;17.51;78.11
71638;BME280;59485;43.542;-5.676;2022-11-13T11:14:28;101431.75;;;17.43;81.45
71638;BME280;59485;43.542;-5.676;2022-11-13T11:16:57;101418.53;;;17.39;83.20
71638;BME280;59485;43.542;-5.676;2022-11-13T11:19:28;101420.06;;;17.35;86.17
71638;BME280;59485;43.542;-5.676;2022-11-13T11:22:06;101425.59;;;17.35;88.40
71638;BME280;59485;43.542;-5.676;2022-11-13T11:24:37;101424.09;;;17.32;89.64
71638;BME280;59485;43.542;-5.676;2022-11-13T11:27:18;101421.34;;;17.32;88.74
71638;BME280;59485;43.542;-5.676;2022-11-13T11:29:57;101416.91;;;17.18;87.55
71638;BME280;59485;43.542;-5.676;2022-11-13T11:37:27;101400.41;;;17.43;86.58
71638;BME280;59485;43.542;-5.676;2022-11-13T11:40:20;101396.31;;;17.45;85.80
71638;BME280;59485;43.542;-5.676;2022-11-13T11:43:15;101387.56;;;17.48;85.99
71638;BME280;59485;43.542;-5.676;2022-11-13T11:45:44;101387.53;;;17.55;86.62
71638;BME280;59485;43.542;-5.676;2022-11-13T11:48:13;101378.16;;;17.56;87.51
71638;BME280;59485;43.542;-5.676;2022-11-13T11:50:49;101377.50;;;17.60;85.86
71638;BME280;59485;43.542;-5.676;2022-11-13T12:02:06;101352.47;;;17.80;85.01
71638;BME280;59485;43.542;-5.676;2022-11-13T12:04:46;101351.34;;;17.81;84.75
71638;BME280;59485;43.542;-5.676;2022-11-13T12:07:32;101342.66;;;17.78;85.08
71638;BME280;59485;43.542;-5.676;2022-11-13T12:12:46;101324.94;;;17.79;86.17
71638;BME280;59485;43.542;-5.676;2022-11-13T12:15:29;101318.31;;;17.80;85.41
71638;BME280;59485;43.542;-5.676;2022-11-13T12:18:21;101316.56;;;17.85;85.52
71638;BME280;59485;43.542;-5.676;2022-11-13T12:21:42;101318.66;;;17.90;84.69
71638;BME280;59485;43.542;-5.676;2022-11-13T12:24:36;101312.50;;;17.88;82.89
71638;BME280;59485;43.542;-5.676;2022-11-13T12:27:18;101309.50;;;17.89;78.41
71638;BME280;59485;43.542;-5.676;2022-11-13T12:35:14;101297.91;;;18.17;76.07
71638;BME280;59485;43.542;-5.676;2022-11-13T12:40:37;101291.84;;;18.27;79.91
71638;BME280;59485;43.542;-5.676;2022-11-13T12:43:41;101305.69;;;18.33;79.99
71638;BME280;59485;43.542;-5.676;2022-11-13T12:46:11;101293.75;;;18.33;80.53
71638;BME280;59485;43.542;-5.676;2022-11-13T12:48:43;101288.56;;;18.36;80.96
71638;BME280;59485;43.542;-5.676;2022-11-13T12:51:15;101278.22;;;18.44;80.95
71638;BME280;59485;43.542;-5.676;2022-11-13T12:53:48;101279.25;;;18.49;77.63
71638;BME280;59485;43.542;-5.676;2022-11-13T13:01:49;101251.75;;;18.84;73.37
71638;BME280;59485;43.542;-5.676;2022-11-13T13:07:36;101252.06;;;19.06;71.32
71638;BME280;59485;43.542;-5.676;2022-11-13T13:10:29;101249.00;;;19.14;71.05
71638;BME280;59485;43.542;-5.676;2022-11-13T13:15:40;101226.44;;;19.34;70.07
71638;BME280;59485;43.542;-5.676;2022-11-13T13:23:30;101211.69;;;19.63;69.40
71638;BME280;59485;43.542;-5.676;2022-11-13T13:26:18;101221.59;;;19.71;68.79
71638;BME280;59485;43.542;-5.676;2022-11-13T13:28:53;101209.25;;;19.78;67.99
71638;BME280;59485;43.542;-5.676;2022-11-13T13:31:45;101214.47;;;19.86;67.47
71638;BME280;59485;43.542;-5.676;2022-11-13T13:37:54;101198.66;;;20.10;67.05
71638;BME280;59485;43.542;-5.676;2022-11-13T13:42:52;101189.44;;;20.21;66.15
71638;BME280;59485;43.542;-5.676;2022-11-13T13:48:27;101183.38;;;20.36;65.07
71638;BME280;59485;43.542;-5.676;2022-11-13T13:50:55;101178.44;;;20.38;64.32
71638;BME280;59485;43.542;-5.676;2022-11-13T13:53:29;101175.75;;;20.43;63.97
71638;BME280;59485;43.542;-5.676;2022-11-13T13:55:57;101174.50;;;20.51;63.32
71638;BME280;59485;43.542;-5.676;2022-11-13T13:58:34;101164.56;;;20.55;62.62
71638;BME280;59485;43.542;-5.676;2022-11-13T14:01:05;101166.59;;;20.59;62.56